Pagina principale
METAR-TAF:

METAR-TAF

Aeroporti :

Aeroporto di Rimini-Miramare

Rimini, Italia

latitudine: 44-02N, longitudine: 012-37E, altezza: 12 m

Osservazione

Il bollettino è stato emesso 42 minuti fa, alle 20:15 UTC
Vento calmo
Temperature 19°C
Umidità 88%
Pressione 1016 hPa
Visibilità 10 km o più
Nubi sparse ad un'altezza di 3500 ft

METAR: LIPR 222015Z 00000KT 9999 SCT035 19/17 Q1016

Ora: 22:57 (20:57 UTC)

Previsione

Il bollettino è stato emesso 57 minuti fa, alle 20:00 UTC
Previsione valida dal 22 alle 21 UTC al 23 alle 06 UTC
Vento 10 kt da est
Visibilità 10 km o più
Nubi sparse ad un'altezza di 7000 ft
Temporaneamente
dal 22 alle 23 UTC al 23 alle 03 UTC
Vento 15 kt da est con raffiche fino a 25 kt

TAF: LIPR 222000Z 2221/2306 09010KT 9999 SCT070 TEMPO 2223/2303 09015G25KT

Osservazioni e previsioni meteorologiche di più di 4000 aeroporti (messaggi METAR e TAF).

Le stazioni disponibili sono rappresentate dai dischi gialli e rossi sulla carta.

Puntare il mouse per vedere il nome della stazione.

Clicca sopra per visualizzare le osservazioni e previsioni meteorologiche.

Per cambiare la mappa : fare clic sui pulsanti verdi con una croce nera per ingrandire, il pulsante verde con un trattino per diminuire, o sulla freccia verde per le mappe adiacenti.


METAR-TAF: